sensor_id;sensor_type;location;lat;lon;timestamp;temperature;humidity
69189;DHT22;56302;52.322;5.926;2024-03-08T00:00:14;1.60;94.50
69189;DHT22;56302;52.322;5.926;2024-03-08T00:02:40;1.50;94.40
69189;DHT22;56302;52.322;5.926;2024-03-08T00:05:06;1.50;94.60
69189;DHT22;56302;52.322;5.926;2024-03-08T00:07:40;1.50;94.60
69189;DHT22;56302;52.322;5.926;2024-03-08T00:10:07;1.50;94.60
69189;DHT22;56302;52.322;5.926;2024-03-08T00:12:37;1.40;94.60
69189;DHT22;56302;52.322;5.926;2024-03-08T00:15:03;1.50;94.50
69189;DHT22;56302;52.322;5.926;2024-03-08T00:17:29;1.40;94.60
69189;DHT22;56302;52.322;5.926;2024-03-08T00:19:54;1.40;94.60
69189;DHT22;56302;52.322;5.926;2024-03-08T00:22:20;1.40;94.70
69189;DHT22;56302;52.322;5.926;2024-03-08T00:24:47;1.40;94.70
69189;DHT22;56302;52.322;5.926;2024-03-08T00:27:14;1.30;94.70
69189;DHT22;56302;52.322;5.926;2024-03-08T00:29:41;1.30;94.70
69189;DHT22;56302;52.322;5.926;2024-03-08T00:32:06;1.30;94.60
69189;DHT22;56302;52.322;5.926;2024-03-08T00:34:35;1.30;94.70
69189;DHT22;56302;52.322;5.926;2024-03-08T00:37:02;1.30;94.80
69189;DHT22;56302;52.322;5.926;2024-03-08T00:39:28;1.20;94.70
69189;DHT22;56302;52.322;5.926;2024-03-08T00:41:53;1.20;94.70
69189;DHT22;56302;52.322;5.926;2024-03-08T00:44:19;1.20;94.90
69189;DHT22;56302;52.322;5.926;2024-03-08T00:46:44;1.20;94.80
69189;DHT22;56302;52.322;5.926;2024-03-08T00:49:10;1.20;94.70
69189;DHT22;56302;52.322;5.926;2024-03-08T00:51:38;1.20;94.80
69189;DHT22;56302;52.322;5.926;2024-03-08T00:54:03;1.20;94.80
69189;DHT22;56302;52.322;5.926;2024-03-08T00:56:29;1.20;94.80
69189;DHT22;56302;52.322;5.926;2024-03-08T00:58:55;1.20;94.80
69189;DHT22;56302;52.322;5.926;2024-03-08T01:01:20;1.10;94.80
69189;DHT22;56302;52.322;5.926;2024-03-08T01:03:46;1.20;94.80
69189;DHT22;56302;52.322;5.926;2024-03-08T01:06:11;1.20;94.80
69189;DHT22;56302;52.322;5.926;2024-03-08T01:08:37;1.20;94.60
69189;DHT22;56302;52.322;5.926;2024-03-08T01:11:08;1.10;94.60
69189;DHT22;56302;52.322;5.926;2024-03-08T01:13:34;1.10;94.80
69189;DHT22;56302;52.322;5.926;2024-03-08T01:16:00;1.10;94.70
69189;DHT22;56302;52.322;5.926;2024-03-08T01:18:25;1.10;94.80
69189;DHT22;56302;52.322;5.926;2024-03-08T01:20:51;1.10;94.70
69189;DHT22;56302;52.322;5.926;2024-03-08T01:23:16;1.00;94.70
69189;DHT22;56302;52.322;5.926;2024-03-08T01:25:42;1.00;94.80
69189;DHT22;56302;52.322;5.926;2024-03-08T01:28:09;1.00;94.60
69189;DHT22;56302;52.322;5.926;2024-03-08T01:30:35;1.00;94.70
69189;DHT22;56302;52.322;5.926;2024-03-08T01:33:02;1.00;94.60
69189;DHT22;56302;52.322;5.926;2024-03-08T01:35:28;0.90;94.60
69189;DHT22;56302;52.322;5.926;2024-03-08T01:37:53;0.90;94.60
69189;DHT22;56302;52.322;5.926;2024-03-08T01:40:20;0.90;94.70
69189;DHT22;56302;52.322;5.926;2024-03-08T01:42:46;0.90;94.60
69189;DHT22;56302;52.322;5.926;2024-03-08T01:45:13;0.90;94.80
69189;DHT22;56302;52.322;5.926;2024-03-08T01:47:38;0.80;94.90
69189;DHT22;56302;52.322;5.926;2024-03-08T01:50:05;0.80;94.80
69189;DHT22;56302;52.322;5.926;2024-03-08T01:52:32;0.80;94.70
69189;DHT22;56302;52.322;5.926;2024-03-08T01:55:02;0.80;94.70
69189;DHT22;56302;52.322;5.926;2024-03-08T01:57:31;0.80;94.70
69189;DHT22;56302;52.322;5.926;2024-03-08T01:59:59;0.70;94.80
69189;DHT22;56302;52.322;5.926;2024-03-08T02:02:32;0.70;94.90
69189;DHT22;56302;52.322;5.926;2024-03-08T02:04:57;0.70;94.90
69189;DHT22;56302;52.322;5.926;2024-03-08T02:07:23;0.70;94.80
69189;DHT22;56302;52.322;5.926;2024-03-08T02:09:49;0.70;94.80
69189;DHT22;56302;52.322;5.926;2024-03-08T02:12:14;0.60;95.00
69189;DHT22;56302;52.322;5.926;2024-03-08T02:14:40;0.60;94.80
69189;DHT22;56302;52.322;5.926;2024-03-08T02:17:06;0.50;94.80
69189;DHT22;56302;52.322;5.926;2024-03-08T02:19:31;0.50;94.80
69189;DHT22;56302;52.322;5.926;2024-03-08T02:21:58;0.50;94.80
69189;DHT22;56302;52.322;5.926;2024-03-08T02:24:24;0.50;94.80
69189;DHT22;56302;52.322;5.926;2024-03-08T02:26:50;0.50;94.80
69189;DHT22;56302;52.322;5.926;2024-03-08T02:29:16;0.50;94.80
69189;DHT22;56302;52.322;5.926;2024-03-08T02:31:42;0.50;94.80
69189;DHT22;56302;52.322;5.926;2024-03-08T02:34:08;0.40;94.70
69189;DHT22;56302;52.322;5.926;2024-03-08T02:36:35;0.40;94.60
69189;DHT22;56302;52.322;5.926;2024-03-08T02:39:03;0.40;94.60
69189;DHT22;56302;52.322;5.926;2024-03-08T02:41:30;0.40;94.60
69189;DHT22;56302;52.322;5.926;2024-03-08T02:43:56;0.30;94.60
69189;DHT22;56302;52.322;5.926;2024-03-08T02:46:21;0.30;94.70
69189;DHT22;56302;52.322;5.926;2024-03-08T02:48:47;0.30;94.70
69189;DHT22;56302;52.322;5.926;2024-03-08T02:51:13;0.20;94.60
69189;DHT22;56302;52.322;5.926;2024-03-08T02:53:39;0.20;94.60
69189;DHT22;56302;52.322;5.926;2024-03-08T02:56:05;0.20;94.70
69189;DHT22;56302;52.322;5.926;2024-03-08T02:58:34;0.20;94.80
69189;DHT22;56302;52.322;5.926;2024-03-08T03:00:59;0.10;94.80
69189;DHT22;56302;52.322;5.926;2024-03-08T03:03:25;0.10;94.80
69189;DHT22;56302;52.322;5.926;2024-03-08T03:05:52;0.10;94.90
69189;DHT22;56302;52.322;5.926;2024-03-08T03:08:21;0.10;94.90
69189;DHT22;56302;52.322;5.926;2024-03-08T03:10:46;0.00;94.90
69189;DHT22;56302;52.322;5.926;2024-03-08T03:13:12;0.00;94.90
69189;DHT22;56302;52.322;5.926;2024-03-08T03:15:39;0.00;94.90
69189;DHT22;56302;52.322;5.926;2024-03-08T03:18:07;0.00;94.80
69189;DHT22;56302;52.322;5.926;2024-03-08T03:20:33;-0.10;94.80
69189;DHT22;56302;52.322;5.926;2024-03-08T03:23:02;-0.10;94.20
69189;DHT22;56302;52.322;5.926;2024-03-08T03:25:28;-0.20;94.00
69189;DHT22;56302;52.322;5.926;2024-03-08T03:27:59;-0.40;93.70
69189;DHT22;56302;52.322;5.926;2024-03-08T03:30:25;-0.50;94.70
69189;DHT22;56302;52.322;5.926;2024-03-08T03:32:52;-0.40;95.10
69189;DHT22;56302;52.322;5.926;2024-03-08T03:35:20;-0.40;95.20
69189;DHT22;56302;52.322;5.926;2024-03-08T03:37:46;-0.40;95.30
69189;DHT22;56302;52.322;5.926;2024-03-08T03:40:31;-0.40;95.30
69189;DHT22;56302;52.322;5.926;2024-03-08T03:42:57;-0.50;95.30
69189;DHT22;56302;52.322;5.926;2024-03-08T03:45:23;-0.50;95.30
69189;DHT22;56302;52.322;5.926;2024-03-08T03:47:49;-0.60;95.10
69189;DHT22;56302;52.322;5.926;2024-03-08T03:50:15;-0.60;95.00
69189;DHT22;56302;52.322;5.926;2024-03-08T03:52:41;-0.60;94.70
69189;DHT22;56302;52.322;5.926;2024-03-08T03:55:08;-0.70;94.40
69189;DHT22;56302;52.322;5.926;2024-03-08T03:57:34;-0.70;94.20
69189;DHT22;56302;52.322;5.926;2024-03-08T03:59:59;-0.80;94.10
69189;DHT22;56302;52.322;5.926;2024-03-08T04:02:25;-0.80;94.70
69189;DHT22;56302;52.322;5.926;2024-03-08T04:04:52;-0.80;95.00
69189;DHT22;56302;52.322;5.926;2024-03-08T04:07:19;-0.90;95.60
69189;DHT22;56302;52.322;5.926;2024-03-08T04:09:45;-0.90;96.00
69189;DHT22;56302;52.322;5.926;2024-03-08T04:12:10;-0.80;96.10
69189;DHT22;56302;52.322;5.926;2024-03-08T04:14:36;-0.80;96.20
69189;DHT22;56302;52.322;5.926;2024-03-08T04:17:02;-0.90;96.10
69189;DHT22;56302;52.322;5.926;2024-03-08T04:19:28;-0.90;96.20
69189;DHT22;56302;52.322;5.926;2024-03-08T04:21:54;-0.90;96.30
69189;DHT22;56302;52.322;5.926;2024-03-08T04:24:20;-1.00;96.30
69189;DHT22;56302;52.322;5.926;2024-03-08T04:26:46;-1.00;96.10
69189;DHT22;56302;52.322;5.926;2024-03-08T04:29:12;-1.10;95.90
69189;DHT22;56302;52.322;5.926;2024-03-08T04:31:40;-1.10;95.60
69189;DHT22;56302;52.322;5.926;2024-03-08T04:34:05;-1.10;95.20
69189;DHT22;56302;52.322;5.926;2024-03-08T04:36:31;-1.20;94.90
69189;DHT22;56302;52.322;5.926;2024-03-08T04:38:57;-1.30;95.10
69189;DHT22;56302;52.322;5.926;2024-03-08T04:41:22;-1.30;95.00
69189;DHT22;56302;52.322;5.926;2024-03-08T04:43:49;-1.20;94.70
69189;DHT22;56302;52.322;5.926;2024-03-08T04:46:14;-1.30;94.40
69189;DHT22;56302;52.322;5.926;2024-03-08T04:48:41;-1.30;94.10
69189;DHT22;56302;52.322;5.926;2024-03-08T04:51:08;-1.40;94.60
69189;DHT22;56302;52.322;5.926;2024-03-08T04:53:33;-1.50;95.30
69189;DHT22;56302;52.322;5.926;2024-03-08T04:55:59;-1.50;95.90
69189;DHT22;56302;52.322;5.926;2024-03-08T04:58:25;-1.50;96.20
69189;DHT22;56302;52.322;5.926;2024-03-08T05:00:51;-1.50;96.30
69189;DHT22;56302;52.322;5.926;2024-03-08T05:03:16;-1.50;96.60
69189;DHT22;56302;52.322;5.926;2024-03-08T05:05:42;-1.50;96.90
69189;DHT22;56302;52.322;5.926;2024-03-08T05:08:08;-1.50;97.00
69189;DHT22;56302;52.322;5.926;2024-03-08T05:10:33;-1.50;97.10
69189;DHT22;56302;52.322;5.926;2024-03-08T05:12:59;-1.40;97.00
69189;DHT22;56302;52.322;5.926;2024-03-08T05:15:24;-1.50;96.80
69189;DHT22;56302;52.322;5.926;2024-03-08T05:17:50;-1.50;96.80
69189;DHT22;56302;52.322;5.926;2024-03-08T05:20:16;-1.60;96.30
69189;DHT22;56302;52.322;5.926;2024-03-08T05:22:42;-1.60;96.40
69189;DHT22;56302;52.322;5.926;2024-03-08T05:25:08;-1.60;96.10
69189;DHT22;56302;52.322;5.926;2024-03-08T05:27:35;-1.60;95.90
69189;DHT22;56302;52.322;5.926;2024-03-08T05:30:05;-1.60;95.60
69189;DHT22;56302;52.322;5.926;2024-03-08T05:32:31;-1.60;95.70
69189;DHT22;56302;52.322;5.926;2024-03-08T05:34:57;-1.60;96.40
69189;DHT22;56302;52.322;5.926;2024-03-08T05:37:23;-1.60;96.70
69189;DHT22;56302;52.322;5.926;2024-03-08T05:39:48;-1.60;96.90
69189;DHT22;56302;52.322;5.926;2024-03-08T05:42:14;-1.60;97.10
69189;DHT22;56302;52.322;5.926;2024-03-08T05:44:39;-1.60;97.30
69189;DHT22;56302;52.322;5.926;2024-03-08T05:47:06;-1.60;97.30
69189;DHT22;56302;52.322;5.926;2024-03-08T05:49:32;-1.60;97.30
69189;DHT22;56302;52.322;5.926;2024-03-08T05:51:59;-1.70;97.30
69189;DHT22;56302;52.322;5.926;2024-03-08T05:54:25;-1.70;97.10
69189;DHT22;56302;52.322;5.926;2024-03-08T05:56:52;-1.70;96.90
69189;DHT22;56302;52.322;5.926;2024-03-08T05:59:18;-1.70;96.60
69189;DHT22;56302;52.322;5.926;2024-03-08T06:01:44;-1.70;96.30
69189;DHT22;56302;52.322;5.926;2024-03-08T06:04:11;-1.80;96.20
69189;DHT22;56302;52.322;5.926;2024-03-08T06:06:37;-1.70;96.90
69189;DHT22;56302;52.322;5.926;2024-03-08T06:09:03;-1.60;96.90
69189;DHT22;56302;52.322;5.926;2024-03-08T06:11:34;-1.60;97.10
69189;DHT22;56302;52.322;5.926;2024-03-08T06:14:00;-1.50;97.20
69189;DHT22;56302;52.322;5.926;2024-03-08T06:16:29;-1.50;97.10
69189;DHT22;56302;52.322;5.926;2024-03-08T06:18:57;-1.50;97.00
69189;DHT22;56302;52.322;5.926;2024-03-08T06:21:26;-1.60;96.80
69189;DHT22;56302;52.322;5.926;2024-03-08T06:23:53;-1.70;96.60
69189;DHT22;56302;52.322;5.926;2024-03-08T06:26:25;-1.70;96.30
69189;DHT22;56302;52.322;5.926;2024-03-08T06:28:54;-1.70;96.20
69189;DHT22;56302;52.322;5.926;2024-03-08T06:31:19;-1.70;96.20
69189;DHT22;56302;52.322;5.926;2024-03-08T06:33:45;-1.70;96.40
69189;DHT22;56302;52.322;5.926;2024-03-08T06:36:11;-1.60;96.40
69189;DHT22;56302;52.322;5.926;2024-03-08T06:38:38;-1.40;96.80
69189;DHT22;56302;52.322;5.926;2024-03-08T06:41:11;-1.30;96.80
69189;DHT22;56302;52.322;5.926;2024-03-08T06:43:44;-1.10;96.60
69189;DHT22;56302;52.322;5.926;2024-03-08T06:46:10;-1.00;96.30
69189;DHT22;56302;52.322;5.926;2024-03-08T06:48:38;-0.90;96.10
69189;DHT22;56302;52.322;5.926;2024-03-08T06:51:04;-0.80;95.90
69189;DHT22;56302;52.322;5.926;2024-03-08T06:53:30;-0.80;95.80
69189;DHT22;56302;52.322;5.926;2024-03-08T06:55:57;-0.60;95.70
69189;DHT22;56302;52.322;5.926;2024-03-08T06:58:23;-0.50;95.50
69189;DHT22;56302;52.322;5.926;2024-03-08T07:00:48;-0.40;95.20
69189;DHT22;56302;52.322;5.926;2024-03-08T07:03:17;-0.20;94.80
69189;DHT22;56302;52.322;5.926;2024-03-08T07:05:43;-0.10;94.60
69189;DHT22;56302;52.322;5.926;2024-03-08T07:08:09;0.00;94.20
69189;DHT22;56302;52.322;5.926;2024-03-08T07:10:35;0.10;93.70
69189;DHT22;56302;52.322;5.926;2024-03-08T07:13:02;0.20;93.10
69189;DHT22;56302;52.322;5.926;2024-03-08T07:15:28;0.30;92.90
69189;DHT22;56302;52.322;5.926;2024-03-08T07:17:54;0.30;92.90
69189;DHT22;56302;52.322;5.926;2024-03-08T07:20:20;0.40;92.80
69189;DHT22;56302;52.322;5.926;2024-03-08T07:22:46;0.50;92.60
69189;DHT22;56302;52.322;5.926;2024-03-08T07:25:18;0.70;92.20
69189;DHT22;56302;52.322;5.926;2024-03-08T07:27:53;0.90;91.60
69189;DHT22;56302;52.322;5.926;2024-03-08T07:30:23;1.00;91.60
69189;DHT22;56302;52.322;5.926;2024-03-08T07:33:08;1.10;91.70
69189;DHT22;56302;52.322;5.926;2024-03-08T07:35:37;1.20;91.70
69189;DHT22;56302;52.322;5.926;2024-03-08T07:38:07;1.30;90.00
69189;DHT22;56302;52.322;5.926;2024-03-08T07:40:40;1.40;89.70
69189;DHT22;56302;52.322;5.926;2024-03-08T07:43:10;1.40;89.40
69189;DHT22;56302;52.322;5.926;2024-03-08T07:45:39;1.40;89.40
69189;DHT22;56302;52.322;5.926;2024-03-08T07:48:06;1.50;88.80
69189;DHT22;56302;52.322;5.926;2024-03-08T07:50:39;1.50;88.70
69189;DHT22;56302;52.322;5.926;2024-03-08T07:53:05;1.60;88.90
69189;DHT22;56302;52.322;5.926;2024-03-08T07:55:34;1.70;89.20
69189;DHT22;56302;52.322;5.926;2024-03-08T07:58:03;1.70;87.90
69189;DHT22;56302;52.322;5.926;2024-03-08T08:00:29;1.70;87.20
69189;DHT22;56302;52.322;5.926;2024-03-08T08:02:56;1.70;87.10
69189;DHT22;56302;52.322;5.926;2024-03-08T08:05:22;1.80;86.90
69189;DHT22;56302;52.322;5.926;2024-03-08T08:07:48;2.00;87.40
69189;DHT22;56302;52.322;5.926;2024-03-08T08:10:15;2.20;86.40
69189;DHT22;56302;52.322;5.926;2024-03-08T08:12:47;2.40;86.50
69189;DHT22;56302;52.322;5.926;2024-03-08T08:15:13;2.60;85.90
69189;DHT22;56302;52.322;5.926;2024-03-08T08:17:41;2.80;86.10
69189;DHT22;56302;52.322;5.926;2024-03-08T08:20:08;2.90;83.40
69189;DHT22;56302;52.322;5.926;2024-03-08T08:22:34;3.00;83.30
69189;DHT22;56302;52.322;5.926;2024-03-08T08:25:00;3.20;83.40
69189;DHT22;56302;52.322;5.926;2024-03-08T08:27:25;3.20;82.90
69189;DHT22;56302;52.322;5.926;2024-03-08T08:29:51;3.50;82.40
69189;DHT22;56302;52.322;5.926;2024-03-08T08:32:17;3.60;83.10
69189;DHT22;56302;52.322;5.926;2024-03-08T08:34:44;3.80;81.70
69189;DHT22;56302;52.322;5.926;2024-03-08T08:37:09;3.90;79.60
69189;DHT22;56302;52.322;5.926;2024-03-08T08:39:35;4.00;81.30
69189;DHT22;56302;52.322;5.926;2024-03-08T08:42:01;4.30;80.60
69189;DHT22;56302;52.322;5.926;2024-03-08T08:44:28;4.20;78.10
69189;DHT22;56302;52.322;5.926;2024-03-08T08:46:53;4.30;79.40
69189;DHT22;56302;52.322;5.926;2024-03-08T08:49:19;4.40;78.30
69189;DHT22;56302;52.322;5.926;2024-03-08T08:51:54;4.30;76.10
69189;DHT22;56302;52.322;5.926;2024-03-08T08:54:20;4.50;78.10
69189;DHT22;56302;52.322;5.926;2024-03-08T08:56:46;4.50;75.50
69189;DHT22;56302;52.322;5.926;2024-03-08T08:59:13;4.50;76.00
69189;DHT22;56302;52.322;5.926;2024-03-08T09:01:44;4.60;76.20
69189;DHT22;56302;52.322;5.926;2024-03-08T09:04:12;4.70;74.60
69189;DHT22;56302;52.322;5.926;2024-03-08T09:06:38;5.00;77.90
69189;DHT22;56302;52.322;5.926;2024-03-08T09:09:06;5.00;74.50
69189;DHT22;56302;52.322;5.926;2024-03-08T09:11:34;4.60;74.70
69189;DHT22;56302;52.322;5.926;2024-03-08T09:14:00;4.60;74.40
69189;DHT22;56302;52.322;5.926;2024-03-08T09:16:27;4.80;76.30
69189;DHT22;56302;52.322;5.926;2024-03-08T09:18:53;5.10;75.20
69189;DHT22;56302;52.322;5.926;2024-03-08T09:21:18;5.20;75.20
69189;DHT22;56302;52.322;5.926;2024-03-08T09:23:44;5.20;75.20
69189;DHT22;56302;52.322;5.926;2024-03-08T09:26:10;5.40;75.30
69189;DHT22;56302;52.322;5.926;2024-03-08T09:28:38;5.40;74.90
69189;DHT22;56302;52.322;5.926;2024-03-08T09:31:04;5.40;75.20
69189;DHT22;56302;52.322;5.926;2024-03-08T09:33:31;5.60;75.00
69189;DHT22;56302;52.322;5.926;2024-03-08T09:35:56;5.60;74.10
69189;DHT22;56302;52.322;5.926;2024-03-08T09:38:25;5.50;75.40
69189;DHT22;56302;52.322;5.926;2024-03-08T09:40:51;5.50;73.20
69189;DHT22;56302;52.322;5.926;2024-03-08T09:43:18;5.70;74.30
69189;DHT22;56302;52.322;5.926;2024-03-08T09:45:45;5.70;72.70
69189;DHT22;56302;52.322;5.926;2024-03-08T09:48:15;5.70;72.40
69189;DHT22;56302;52.322;5.926;2024-03-08T09:50:42;5.90;73.90
69189;DHT22;56302;52.322;5.926;2024-03-08T09:53:09;5.70;72.10
69189;DHT22;56302;52.322;5.926;2024-03-08T09:55:37;5.70;73.30
69189;DHT22;56302;52.322;5.926;2024-03-08T09:58:06;5.80;72.80
69189;DHT22;56302;52.322;5.926;2024-03-08T10:00:56;5.80;71.20
69189;DHT22;56302;52.322;5.926;2024-03-08T10:03:27;5.80;72.30
69189;DHT22;56302;52.322;5.926;2024-03-08T10:05:53;5.70;73.10
69189;DHT22;56302;52.322;5.926;2024-03-08T10:08:21;5.70;73.60
69189;DHT22;56302;52.322;5.926;2024-03-08T10:10:47;5.80;72.90
69189;DHT22;56302;52.322;5.926;2024-03-08T10:13:15;5.90;71.90
69189;DHT22;56302;52.322;5.926;2024-03-08T10:15:42;5.90;72.30
69189;DHT22;56302;52.322;5.926;2024-03-08T10:18:08;6.10;72.90
69189;DHT22;56302;52.322;5.926;2024-03-08T10:20:36;6.20;71.50
69189;DHT22;56302;52.322;5.926;2024-03-08T10:23:03;6.30;72.60
69189;DHT22;56302;52.322;5.926;2024-03-08T10:25:34;6.40;72.80
69189;DHT22;56302;52.322;5.926;2024-03-08T10:28:02;6.30;71.70
69189;DHT22;56302;52.322;5.926;2024-03-08T10:30:29;6.30;72.50
69189;DHT22;56302;52.322;5.926;2024-03-08T10:32:55;6.40;71.60
69189;DHT22;56302;52.322;5.926;2024-03-08T10:35:21;6.50;70.50
69189;DHT22;56302;52.322;5.926;2024-03-08T10:37:49;6.30;70.40
69189;DHT22;56302;52.322;5.926;2024-03-08T10:40:19;6.50;71.70
69189;DHT22;56302;52.322;5.926;2024-03-08T10:42:59;6.60;71.20
69189;DHT22;56302;52.322;5.926;2024-03-08T10:48:29;6.90;71.00
69189;DHT22;56302;52.322;5.926;2024-03-08T10:50:59;7.00;71.00
69189;DHT22;56302;52.322;5.926;2024-03-08T10:53:28;6.90;69.90
69189;DHT22;56302;52.322;5.926;2024-03-08T10:55:58;7.10;70.80
69189;DHT22;56302;52.322;5.926;2024-03-08T10:58:27;6.90;69.70
69189;DHT22;56302;52.322;5.926;2024-03-08T11:00:57;7.10;70.00
69189;DHT22;56302;52.322;5.926;2024-03-08T11:09:33;7.20;69.30
69189;DHT22;56302;52.322;5.926;2024-03-08T11:12:19;7.30;68.10
69189;DHT22;56302;52.322;5.926;2024-03-08T11:14:54;7.20;68.50
69189;DHT22;56302;52.322;5.926;2024-03-08T11:19:58;7.40;68.70
69189;DHT22;56302;52.322;5.926;2024-03-08T11:22:32;7.40;69.60
69189;DHT22;56302;52.322;5.926;2024-03-08T11:25:05;7.50;68.70
69189;DHT22;56302;52.322;5.926;2024-03-08T11:27:38;7.60;68.20
69189;DHT22;56302;52.322;5.926;2024-03-08T11:30:08;7.60;67.70
69189;DHT22;56302;52.322;5.926;2024-03-08T11:32:38;7.60;67.10
69189;DHT22;56302;52.322;5.926;2024-03-08T11:35:07;7.60;67.60
69189;DHT22;56302;52.322;5.926;2024-03-08T11:37:34;7.80;67.60
69189;DHT22;56302;52.322;5.926;2024-03-08T11:40:01;7.80;67.30
69189;DHT22;56302;52.322;5.926;2024-03-08T11:42:30;7.90;68.60
69189;DHT22;56302;52.322;5.926;2024-03-08T11:44:56;8.00;67.70
69189;DHT22;56302;52.322;5.926;2024-03-08T11:47:23;8.00;66.30
69189;DHT22;56302;52.322;5.926;2024-03-08T11:49:49;8.00;66.40
69189;DHT22;56302;52.322;5.926;2024-03-08T11:52:16;7.90;64.00
69189;DHT22;56302;52.322;5.926;2024-03-08T11:54:42;7.90;64.70
69189;DHT22;56302;52.322;5.926;2024-03-08T11:57:12;8.00;65.60
69189;DHT22;56302;52.322;5.926;2024-03-08T11:59:38;8.00;66.40
69189;DHT22;56302;52.322;5.926;2024-03-08T12:02:05;8.10;66.90
69189;DHT22;56302;52.322;5.926;2024-03-08T12:04:31;8.30;66.50
69189;DHT22;56302;52.322;5.926;2024-03-08T12:07:00;8.30;65.70
69189;DHT22;56302;52.322;5.926;2024-03-08T12:09:27;8.30;66.30
69189;DHT22;56302;52.322;5.926;2024-03-08T12:11:53;8.50;66.70
69189;DHT22;56302;52.322;5.926;2024-03-08T12:14:19;8.60;65.80
69189;DHT22;56302;52.322;5.926;2024-03-08T12:16:46;8.40;62.90
69189;DHT22;56302;52.322;5.926;2024-03-08T12:19:12;8.50;65.60
69189;DHT22;56302;52.322;5.926;2024-03-08T12:21:38;8.40;66.20
69189;DHT22;56302;52.322;5.926;2024-03-08T12:24:10;8.50;66.60
69189;DHT22;56302;52.322;5.926;2024-03-08T12:26:38;8.60;63.70
69189;DHT22;56302;52.322;5.926;2024-03-08T12:29:26;8.50;62.30
69189;DHT22;56302;52.322;5.926;2024-03-08T12:31:58;8.50;62.80
69189;DHT22;56302;52.322;5.926;2024-03-08T12:34:26;8.50;61.70
69189;DHT22;56302;52.322;5.926;2024-03-08T12:36:58;8.60;61.50
69189;DHT22;56302;52.322;5.926;2024-03-08T12:39:24;8.50;64.10
69189;DHT22;56302;52.322;5.926;2024-03-08T12:41:53;8.70;64.10
69189;DHT22;56302;52.322;5.926;2024-03-08T12:44:19;8.70;63.10
69189;DHT22;56302;52.322;5.926;2024-03-08T12:46:47;8.80;62.20
69189;DHT22;56302;52.322;5.926;2024-03-08T12:49:13;8.70;64.10
69189;DHT22;56302;52.322;5.926;2024-03-08T12:51:43;8.80;61.40
69189;DHT22;56302;52.322;5.926;2024-03-08T12:54:09;8.80;62.20
69189;DHT22;56302;52.322;5.926;2024-03-08T12:56:35;8.80;61.20
69189;DHT22;56302;52.322;5.926;2024-03-08T12:59:04;8.80;60.80
69189;DHT22;56302;52.322;5.926;2024-03-08T13:01:30;8.80;58.80
69189;DHT22;56302;52.322;5.926;2024-03-08T13:03:57;8.70;61.60
69189;DHT22;56302;52.322;5.926;2024-03-08T13:06:24;8.70;60.00
69189;DHT22;56302;52.322;5.926;2024-03-08T13:08:53;8.70;59.90
69189;DHT22;56302;52.322;5.926;2024-03-08T13:11:19;8.70;60.30
69189;DHT22;56302;52.322;5.926;2024-03-08T13:13:45;8.80;59.80
69189;DHT22;56302;52.322;5.926;2024-03-08T13:16:12;8.70;58.90
69189;DHT22;56302;52.322;5.926;2024-03-08T13:18:40;8.70;59.70
69189;DHT22;56302;52.322;5.926;2024-03-08T13:21:07;8.80;59.70
69189;DHT22;56302;52.322;5.926;2024-03-08T13:23:35;8.80;59.80
69189;DHT22;56302;52.322;5.926;2024-03-08T13:26:10;8.80;60.80
69189;DHT22;56302;52.322;5.926;2024-03-08T13:28:47;8.90;59.60
69189;DHT22;56302;52.322;5.926;2024-03-08T13:31:14;8.90;59.60
69189;DHT22;56302;52.322;5.926;2024-03-08T13:33:40;8.70;59.50
69189;DHT22;56302;52.322;5.926;2024-03-08T13:36:10;8.80;61.50
69189;DHT22;56302;52.322;5.926;2024-03-08T13:38:47;8.90;60.10
69189;DHT22;56302;52.322;5.926;2024-03-08T13:41:13;8.80;59.80
69189;DHT22;56302;52.322;5.926;2024-03-08T13:43:46;8.80;60.10
69189;DHT22;56302;52.322;5.926;2024-03-08T13:46:15;8.90;62.00
69189;DHT22;56302;52.322;5.926;2024-03-08T13:48:41;9.00;60.80
69189;DHT22;56302;52.322;5.926;2024-03-08T13:51:07;9.00;60.40
69189;DHT22;56302;52.322;5.926;2024-03-08T13:53:33;8.90;57.70
69189;DHT22;56302;52.322;5.926;2024-03-08T13:56:03;8.90;59.90
69189;DHT22;56302;52.322;5.926;2024-03-08T13:58:29;8.90;58.70
69189;DHT22;56302;52.322;5.926;2024-03-08T14:00:54;8.80;60.40
69189;DHT22;56302;52.322;5.926;2024-03-08T14:03:21;8.90;59.60
69189;DHT22;56302;52.322;5.926;2024-03-08T14:05:46;9.00;58.50
69189;DHT22;56302;52.322;5.926;2024-03-08T14:08:12;8.90;59.10
69189;DHT22;56302;52.322;5.926;2024-03-08T14:10:38;8.90;59.40
69189;DHT22;56302;52.322;5.926;2024-03-08T14:13:04;9.00;60.70
69189;DHT22;56302;52.322;5.926;2024-03-08T14:15:33;9.00;60.60
69189;DHT22;56302;52.322;5.926;2024-03-08T14:18:01;9.00;59.20
69189;DHT22;56302;52.322;5.926;2024-03-08T14:20:27;9.00;58.30
69189;DHT22;56302;52.322;5.926;2024-03-08T14:22:56;8.90;58.00
69189;DHT22;56302;52.322;5.926;2024-03-08T14:25:24;8.90;59.40
69189;DHT22;56302;52.322;5.926;2024-03-08T14:27:50;9.00;59.80
69189;DHT22;56302;52.322;5.926;2024-03-08T14:30:20;9.00;57.40
69189;DHT22;56302;52.322;5.926;2024-03-08T14:33:07;9.00;57.70
69189;DHT22;56302;52.322;5.926;2024-03-08T14:35:36;9.00;58.40
69189;DHT22;56302;52.322;5.926;2024-03-08T14:38:02;9.10;58.20
69189;DHT22;56302;52.322;5.926;2024-03-08T14:40:28;9.10;59.60
69189;DHT22;56302;52.322;5.926;2024-03-08T14:42:56;9.10;60.20
69189;DHT22;56302;52.322;5.926;2024-03-08T14:45:22;9.10;60.00
69189;DHT22;56302;52.322;5.926;2024-03-08T14:47:49;9.20;58.80
69189;DHT22;56302;52.322;5.926;2024-03-08T14:50:19;9.20;59.90
69189;DHT22;56302;52.322;5.926;2024-03-08T14:52:46;9.20;58.80
69189;DHT22;56302;52.322;5.926;2024-03-08T14:55:14;9.20;59.90
69189;DHT22;56302;52.322;5.926;2024-03-08T14:57:43;9.20;59.30
69189;DHT22;56302;52.322;5.926;2024-03-08T15:00:13;9.10;58.60
69189;DHT22;56302;52.322;5.926;2024-03-08T15:02:55;9.10;59.40
69189;DHT22;56302;52.322;5.926;2024-03-08T15:05:21;9.10;58.30
69189;DHT22;56302;52.322;5.926;2024-03-08T15:07:52;9.00;58.20
69189;DHT22;56302;52.322;5.926;2024-03-08T15:10:18;9.00;58.60
69189;DHT22;56302;52.322;5.926;2024-03-08T15:12:46;9.00;57.50
69189;DHT22;56302;52.322;5.926;2024-03-08T15:15:12;9.00;58.20
69189;DHT22;56302;52.322;5.926;2024-03-08T15:17:39;8.90;58.20
69189;DHT22;56302;52.322;5.926;2024-03-08T15:20:08;8.90;57.30
69189;DHT22;56302;52.322;5.926;2024-03-08T15:22:47;8.90;58.00
69189;DHT22;56302;52.322;5.926;2024-03-08T15:25:13;8.90;59.10
69189;DHT22;56302;52.322;5.926;2024-03-08T15:27:48;9.00;59.00
69189;DHT22;56302;52.322;5.926;2024-03-08T15:30:14;8.90;58.50
69189;DHT22;56302;52.322;5.926;2024-03-08T15:32:45;8.90;59.00
69189;DHT22;56302;52.322;5.926;2024-03-08T15:35:16;8.90;58.90
69189;DHT22;56302;52.322;5.926;2024-03-08T15:37:43;8.80;58.40
69189;DHT22;56302;52.322;5.926;2024-03-08T15:40:10;8.80;58.60
69189;DHT22;56302;52.322;5.926;2024-03-08T15:42:55;8.80;59.20
69189;DHT22;56302;52.322;5.926;2024-03-08T15:45:22;8.80;59.80
69189;DHT22;56302;52.322;5.926;2024-03-08T15:47:55;8.70;59.90
69189;DHT22;56302;52.322;5.926;2024-03-08T15:50:21;8.70;59.70
69189;DHT22;56302;52.322;5.926;2024-03-08T15:52:49;8.70;59.40
69189;DHT22;56302;52.322;5.926;2024-03-08T15:55:19;8.70;60.00